createdAt,value
2023-05-14T00:01:52.074Z,5.82
2023-05-14T00:04:22.544Z,4.80
2023-05-14T00:06:49.825Z,5.13
2023-05-14T00:09:17.190Z,5.07
2023-05-14T00:11:44.507Z,5.30
2023-05-14T00:14:12.118Z,5.20
2023-05-14T00:16:39.482Z,5.70
2023-05-14T00:19:06.975Z,5.15
2023-05-14T00:21:34.303Z,5.97
2023-05-14T00:24:01.632Z,6.32
2023-05-14T00:26:28.807Z,5.80
2023-05-14T00:28:55.969Z,7.10
2023-05-14T00:31:23.184Z,6.82
2023-05-14T00:33:50.476Z,6.32
2023-05-14T00:36:17.702Z,6.18
2023-05-14T00:38:45.012Z,5.93
2023-05-14T00:41:12.615Z,6.10
2023-05-14T00:43:39.843Z,6.18
2023-05-14T00:46:07.236Z,6.60
2023-05-14T00:48:34.671Z,5.57
2023-05-14T00:51:01.963Z,6.30
2023-05-14T00:53:29.270Z,5.68
2023-05-14T00:55:58.625Z,5.75
2023-05-14T00:58:26.460Z,5.47
2023-05-14T01:00:53.853Z,6.70
2023-05-14T01:03:21.278Z,5.57
2023-05-14T01:06:25.081Z,5.80
2023-05-14T01:09:21.766Z,6.55
2023-05-14T01:12:17.333Z,6.68
2023-05-14T01:15:02.912Z,6.38
2023-05-14T01:17:38.449Z,6.60
2023-05-14T01:20:07.025Z,5.50
2023-05-14T01:22:34.158Z,6.00
2023-05-14T01:25:01.528Z,6.68
2023-05-14T01:28:14.398Z,6.25
2023-05-14T01:31:06.929Z,7.10
2023-05-14T01:33:36.271Z,6.38
2023-05-14T01:36:03.821Z,5.97
2023-05-14T01:38:34.055Z,6.15
2023-05-14T01:41:02.551Z,5.60
2023-05-14T01:43:31.521Z,7.18
2023-05-14T01:45:59.344Z,6.68
2023-05-14T01:48:26.592Z,5.90
2023-05-14T01:50:53.859Z,7.15
2023-05-14T01:53:21.096Z,7.15
2023-05-14T01:55:48.455Z,6.85
2023-05-14T01:58:15.675Z,6.25
2023-05-14T02:00:44.055Z,5.80
2023-05-14T02:03:11.424Z,6.97
2023-05-14T02:05:39.012Z,6.88
2023-05-14T02:08:06.335Z,6.63
2023-05-14T02:10:33.769Z,7.32
2023-05-14T02:13:01.341Z,7.10
2023-05-14T02:15:28.494Z,6.82
2023-05-14T02:17:55.925Z,6.80
2023-05-14T02:20:23.470Z,6.40
2023-05-14T02:22:50.843Z,6.93
2023-05-14T02:25:18.109Z,6.55
2023-05-14T02:27:45.860Z,5.90
2023-05-14T02:30:13.562Z,6.07
2023-05-14T02:32:41.120Z,7.38
2023-05-14T02:35:09.246Z,6.82
2023-05-14T02:37:36.626Z,6.25
2023-05-14T02:40:04.555Z,6.20
2023-05-14T02:42:32.180Z,6.13
2023-05-14T02:44:59.733Z,6.35
2023-05-14T02:47:27.267Z,7.10
2023-05-14T02:49:54.590Z,6.75
2023-05-14T02:52:21.886Z,7.28
2023-05-14T02:54:49.229Z,7.22
2023-05-14T02:57:16.409Z,6.47
2023-05-14T02:59:43.676Z,6.35
2023-05-14T03:02:11.426Z,6.82
2023-05-14T03:04:39.049Z,5.80
2023-05-14T03:07:06.416Z,6.15
2023-05-14T03:09:34.222Z,6.38
2023-05-14T03:12:02.510Z,6.82
2023-05-14T03:14:29.696Z,7.65
2023-05-14T03:16:56.923Z,6.18
2023-05-14T03:19:24.161Z,6.50
2023-05-14T03:21:51.498Z,6.20
2023-05-14T03:24:18.711Z,6.53
2023-05-14T03:26:45.951Z,6.38
2023-05-14T03:29:18.080Z,5.70
2023-05-14T03:31:45.667Z,5.72
2023-05-14T03:34:13.247Z,5.90
2023-05-14T03:36:40.481Z,6.50
2023-05-14T03:39:07.801Z,4.95
2023-05-14T03:41:36.551Z,4.95
2023-05-14T03:44:03.805Z,5.50
2023-05-14T03:46:31.148Z,4.95
2023-05-14T03:48:58.541Z,5.88
2023-05-14T03:51:25.946Z,5.70
2023-05-14T03:53:53.224Z,6.13
2023-05-14T03:56:20.908Z,5.47
2023-05-14T03:58:48.107Z,5.72
2023-05-14T04:01:15.552Z,5.15
2023-05-14T04:03:42.916Z,5.95
2023-05-14T04:06:11.120Z,5.45
2023-05-14T04:08:38.348Z,4.78
2023-05-14T04:11:06.422Z,4.55
2023-05-14T04:13:33.638Z,5.03
2023-05-14T04:16:01.097Z,4.53
2023-05-14T04:18:28.372Z,5.38
2023-05-14T04:20:55.820Z,5.28
2023-05-14T04:23:23.044Z,5.38
2023-05-14T04:25:50.361Z,4.68
2023-05-14T04:28:17.711Z,5.20
2023-05-14T04:30:45.857Z,5.45
2023-05-14T04:33:13.071Z,5.20
2023-05-14T04:35:40.384Z,4.78
2023-05-14T04:38:07.673Z,4.68
2023-05-14T04:40:34.961Z,3.75
2023-05-14T04:43:02.194Z,4.20
2023-05-14T04:45:29.544Z,4.28
2023-05-14T04:47:56.940Z,3.85
2023-05-14T04:50:24.426Z,4.10
2023-05-14T04:52:51.934Z,3.70
2023-05-14T04:55:19.226Z,3.55
2023-05-14T04:57:46.463Z,3.70
2023-05-14T05:00:14.391Z,4.32
2023-05-14T05:02:41.710Z,3.47
2023-05-14T05:05:09.869Z,4.47
2023-05-14T05:07:37.180Z,3.85
2023-05-14T05:10:04.895Z,4.40
2023-05-14T05:12:32.209Z,3.63
2023-05-14T05:14:59.485Z,4.28
2023-05-14T05:17:26.810Z,4.20
2023-05-14T05:19:54.167Z,4.35
2023-05-14T05:22:21.625Z,4.88
2023-05-14T05:24:50.008Z,3.67
2023-05-14T05:27:17.569Z,3.75
2023-05-14T05:29:44.978Z,3.83
2023-05-14T05:32:12.260Z,4.28
2023-05-14T05:34:39.645Z,4.25
2023-05-14T05:37:07.032Z,3.78
2023-05-14T05:39:35.250Z,3.40
2023-05-14T05:42:03.167Z,3.42
2023-05-14T05:44:30.752Z,3.95
2023-05-14T05:46:58.238Z,4.28
2023-05-14T05:49:26.169Z,4.13
2023-05-14T05:51:53.450Z,4.70
2023-05-14T05:54:20.796Z,4.50
2023-05-14T05:56:48.107Z,4.93
2023-05-14T05:59:15.468Z,4.53
2023-05-14T06:01:43.736Z,4.68
2023-05-14T06:04:11.018Z,4.40
2023-05-14T06:06:38.255Z,4.57
2023-05-14T06:09:07.053Z,3.78
2023-05-14T06:11:34.586Z,3.83
2023-05-14T06:14:02.099Z,3.80
2023-05-14T06:16:29.434Z,4.00
2023-05-14T06:18:56.778Z,4.40
2023-05-14T06:21:24.081Z,4.30
2023-05-14T06:23:51.467Z,4.57
2023-05-14T06:26:18.705Z,4.50
2023-05-14T06:28:45.900Z,4.30
2023-05-14T06:31:13.801Z,4.30
2023-05-14T06:33:41.108Z,5.60
2023-05-14T06:36:09.014Z,5.88
2023-05-14T06:38:36.460Z,5.07
2023-05-14T06:41:04.018Z,4.70
2023-05-14T06:43:31.436Z,6.80
2023-05-14T06:45:58.720Z,5.90
2023-05-14T06:48:27.881Z,5.38
2023-05-14T06:50:55.840Z,5.07
2023-05-14T06:53:23.257Z,5.22
2023-05-14T06:55:50.992Z,5.10
2023-05-14T06:58:18.213Z,4.88
2023-05-14T07:00:45.551Z,4.25
2023-05-14T07:03:12.905Z,5.78
2023-05-14T07:05:41.327Z,8.05
2023-05-14T07:08:08.698Z,8.32
2023-05-14T07:10:36.079Z,7.35
2023-05-14T07:13:03.657Z,7.63
2023-05-14T07:15:30.990Z,5.65
2023-05-14T07:17:58.364Z,4.95
2023-05-14T07:20:26.179Z,4.22
2023-05-14T07:22:53.775Z,4.50
2023-05-14T07:25:21.178Z,4.53
2023-05-14T07:27:48.451Z,4.32
2023-05-14T07:30:15.756Z,4.00
2023-05-14T07:32:43.404Z,4.43
2023-05-14T07:35:11.888Z,4.35
2023-05-14T07:37:39.362Z,4.88
2023-05-14T07:40:07.573Z,4.20
2023-05-14T07:42:36.386Z,4.18
2023-05-14T07:45:05.626Z,4.20
2023-05-14T07:47:33.572Z,3.75
2023-05-14T07:50:01.054Z,3.40
2023-05-14T07:52:28.376Z,3.85
2023-05-14T07:54:55.746Z,3.75
2023-05-14T07:57:23.047Z,3.58
2023-05-14T07:59:50.571Z,3.67
2023-05-14T08:02:18.499Z,3.40
2023-05-14T08:04:45.796Z,3.80
2023-05-14T08:07:13.250Z,3.70
2023-05-14T08:09:40.393Z,3.38
2023-05-14T08:12:08.416Z,3.47
2023-05-14T08:14:35.773Z,3.60
2023-05-14T08:17:03.790Z,3.50
2023-05-14T08:19:31.210Z,3.40
2023-05-14T08:21:58.515Z,3.50
2023-05-14T08:24:25.979Z,3.63
2023-05-14T08:26:53.273Z,3.80
2023-05-14T08:29:20.785Z,4.05
2023-05-14T08:31:50.008Z,4.43
2023-05-14T08:34:17.651Z,3.75
2023-05-14T08:36:44.908Z,3.63
2023-05-14T08:39:12.154Z,4.22
2023-05-14T08:41:40.725Z,4.80
2023-05-14T08:44:29.890Z,4.20
2023-05-14T08:46:57.772Z,4.63
2023-05-14T08:49:46.748Z,4.18
2023-05-14T08:52:16.333Z,4.22
2023-05-14T08:54:44.248Z,4.05
2023-05-14T08:57:13.172Z,4.88
2023-05-14T08:59:41.229Z,5.18
2023-05-14T09:02:12.910Z,4.93
2023-05-14T09:04:41.086Z,4.47
2023-05-14T09:07:08.501Z,4.47
2023-05-14T09:09:36.581Z,4.53
2023-05-14T09:12:04.194Z,4.38
2023-05-14T09:14:33.083Z,4.80
2023-05-14T09:17:00.429Z,4.63
2023-05-14T09:19:27.913Z,3.92
2023-05-14T09:21:59.892Z,4.15
2023-05-14T09:24:31.735Z,4.30
2023-05-14T09:26:59.405Z,4.60
2023-05-14T09:29:30.156Z,4.53
2023-05-14T09:32:00.503Z,4.00
2023-05-14T09:34:33.724Z,3.97
2023-05-14T09:37:04.446Z,4.32
2023-05-14T09:39:36.567Z,4.45
2023-05-14T09:42:04.956Z,3.55
2023-05-14T09:44:32.360Z,4.38
2023-05-14T09:46:59.842Z,4.07
2023-05-14T09:49:27.110Z,4.53
2023-05-14T09:51:54.291Z,4.28
2023-05-14T09:54:21.495Z,4.55
2023-05-14T09:56:48.676Z,4.43
2023-05-14T09:59:16.021Z,4.43
2023-05-14T10:01:44.668Z,4.38
2023-05-14T10:04:13.273Z,4.38
2023-05-14T10:06:42.527Z,4.60
2023-05-14T10:09:14.148Z,4.60
2023-05-14T10:11:50.237Z,4.68
2023-05-14T10:14:56.113Z,4.88
2023-05-14T10:17:27.182Z,4.30
2023-05-14T10:19:59.150Z,5.00
2023-05-14T10:22:34.917Z,4.68
2023-05-14T10:25:04.440Z,4.75
2023-05-14T10:27:32.158Z,4.47
2023-05-14T10:29:59.360Z,4.82
2023-05-14T10:32:28.435Z,5.00
2023-05-14T10:34:55.832Z,4.43
2023-05-14T10:37:26.904Z,4.55
2023-05-14T10:40:02.349Z,4.45
2023-05-14T10:42:40.803Z,4.60
2023-05-14T10:45:14.335Z,4.80
2023-05-14T10:47:47.331Z,4.18
2023-05-14T10:50:15.985Z,5.13
2023-05-14T10:52:45.047Z,4.15
2023-05-14T10:55:17.099Z,5.03
2023-05-14T10:57:46.554Z,4.63
2023-05-14T11:00:15.112Z,4.43
2023-05-14T11:02:45.088Z,4.63
2023-05-14T11:05:17.637Z,3.95
2023-05-14T11:07:48.823Z,4.15
2023-05-14T11:10:22.104Z,3.80
2023-05-14T11:12:51.460Z,3.83
2023-05-14T11:15:22.517Z,3.90
2023-05-14T11:17:51.990Z,4.07
2023-05-14T11:20:21.222Z,4.10
2023-05-14T11:22:51.752Z,4.25
2023-05-14T11:25:19.376Z,3.72
2023-05-14T11:27:48.050Z,4.03
2023-05-14T11:30:17.580Z,4.03
2023-05-14T11:32:47.305Z,3.85
2023-05-14T11:35:15.520Z,4.35
2023-05-14T11:37:43.582Z,4.25
2023-05-14T11:40:18.986Z,3.40
2023-05-14T11:42:46.581Z,4.18
2023-05-14T11:45:26.767Z,4.53
2023-05-14T11:47:55.054Z,4.20
2023-05-14T11:50:23.656Z,4.28
2023-05-14T11:52:51.381Z,4.25
2023-05-14T11:55:18.955Z,4.13
2023-05-14T11:57:46.403Z,4.40
2023-05-14T12:00:16.878Z,4.53
2023-05-14T12:02:44.426Z,4.38
2023-05-14T12:05:13.806Z,4.13
2023-05-14T12:07:44.341Z,3.97
2023-05-14T12:10:13.758Z,3.58
2023-05-14T12:12:41.034Z,3.70
2023-05-14T12:15:13.644Z,4.57
2023-05-14T12:17:41.425Z,4.70
2023-05-14T12:20:12.460Z,4.30
2023-05-14T12:22:43.101Z,4.35
2023-05-14T12:25:14.407Z,4.25
2023-05-14T12:27:45.140Z,4.40
2023-05-14T12:32:44.792Z,3.97
2023-05-14T12:35:12.096Z,4.43
2023-05-14T12:37:40.203Z,4.25
2023-05-14T12:40:09.748Z,4.35
2023-05-14T12:42:37.596Z,4.15
2023-05-14T12:45:08.068Z,4.20
2023-05-14T12:47:36.536Z,4.57
2023-05-14T12:50:05.043Z,4.45
2023-05-14T12:52:38.729Z,4.55
2023-05-14T12:55:09.346Z,4.63
2023-05-14T13:00:12.240Z,4.85
2023-05-14T13:02:42.543Z,4.75
2023-05-14T13:05:12.169Z,4.40
2023-05-14T13:07:39.568Z,4.22
2023-05-14T13:10:07.669Z,4.25
2023-05-14T13:12:35.054Z,4.18
2023-05-14T13:15:02.258Z,3.45
2023-05-14T13:17:29.721Z,4.35
2023-05-14T13:19:57.040Z,4.07
2023-05-14T13:22:24.461Z,4.35
2023-05-14T13:24:51.832Z,3.50
2023-05-14T13:27:19.140Z,4.05
2023-05-14T13:29:46.365Z,3.88
2023-05-14T13:32:13.640Z,4.40
2023-05-14T13:34:40.830Z,3.70
2023-05-14T13:37:08.215Z,4.15
2023-05-14T13:39:35.534Z,3.88
2023-05-14T13:42:03.071Z,4.20
2023-05-14T13:44:30.446Z,4.40
2023-05-14T13:46:57.972Z,4.22
2023-05-14T13:49:25.776Z,4.68
2023-05-14T13:51:53.059Z,4.18
2023-05-14T13:54:20.375Z,3.60
2023-05-14T13:56:48.192Z,3.47
2023-05-14T13:59:15.733Z,3.92
2023-05-14T14:01:43.448Z,3.08
2023-05-14T14:04:11.584Z,2.85
2023-05-14T14:06:39.060Z,3.33
2023-05-14T14:09:06.591Z,2.90
2023-05-14T14:11:34.079Z,3.45
2023-05-14T14:14:01.460Z,3.28
2023-05-14T14:16:28.821Z,4.15
2023-05-14T14:18:57.459Z,3.10
2023-05-14T14:21:25.144Z,3.03
2023-05-14T14:23:52.436Z,3.13
2023-05-14T14:26:19.772Z,3.90
2023-05-14T14:28:47.869Z,3.00
2023-05-14T14:31:16.413Z,3.80
2023-05-14T14:33:43.821Z,3.53
2023-05-14T14:36:11.386Z,3.67
2023-05-14T14:38:41.827Z,3.92
2023-05-14T14:43:40.346Z,4.15
2023-05-14T14:46:10.761Z,4.15
2023-05-14T14:48:38.752Z,4.28
2023-05-14T14:51:08.309Z,5.15
2023-05-14T14:53:37.331Z,3.90
2023-05-14T14:56:05.360Z,4.15
2023-05-14T14:58:32.933Z,3.00
2023-05-14T15:01:01.580Z,4.85
2023-05-14T15:03:29.584Z,4.50
2023-05-14T15:05:57.447Z,4.43
2023-05-14T15:08:28.756Z,4.38
2023-05-14T15:10:59.583Z,4.72
2023-05-14T15:13:27.245Z,3.85
2023-05-14T15:15:54.708Z,3.53
2023-05-14T15:18:22.918Z,2.70
2023-05-14T15:20:50.753Z,2.80
2023-05-14T15:23:18.313Z,3.38
2023-05-14T15:25:45.504Z,5.28
2023-05-14T15:28:12.833Z,4.55
2023-05-14T15:30:40.187Z,4.10
2023-05-14T15:33:10.878Z,5.05
2023-05-14T15:35:38.522Z,3.75
2023-05-14T15:38:06.986Z,4.60
2023-05-14T15:40:35.353Z,3.90
2023-05-14T15:43:04.147Z,3.83
2023-05-14T15:45:31.659Z,3.35
2023-05-14T15:47:58.941Z,2.55
2023-05-14T15:50:27.515Z,2.70
2023-05-14T15:52:54.905Z,3.30
2023-05-14T15:55:22.145Z,3.85
2023-05-14T15:57:49.408Z,5.70
2023-05-14T16:00:17.664Z,4.93
2023-05-14T16:02:45.090Z,4.00
2023-05-14T16:05:14.287Z,4.00
2023-05-14T16:07:43.007Z,4.03
2023-05-14T16:10:10.612Z,4.10
2023-05-14T16:12:37.947Z,4.10
2023-05-14T16:15:07.191Z,4.40
2023-05-14T16:17:35.059Z,4.63
2023-05-14T16:20:04.850Z,5.00
2023-05-14T16:22:32.853Z,5.63
2023-05-14T16:25:03.186Z,4.75
2023-05-14T16:29:58.698Z,5.03
2023-05-14T16:32:26.272Z,5.35
2023-05-14T16:34:53.618Z,6.70
2023-05-14T16:37:21.179Z,7.20
2023-05-14T16:39:48.852Z,6.53
2023-05-14T16:42:16.619Z,6.32
2023-05-14T16:44:44.001Z,6.25
2023-05-14T16:47:11.361Z,5.18
2023-05-14T16:49:38.672Z,5.07
2023-05-14T16:52:07.198Z,4.68
2023-05-14T16:54:34.579Z,5.07
2023-05-14T16:57:01.937Z,5.15
2023-05-14T16:59:29.207Z,5.07
2023-05-14T17:01:56.600Z,4.78
2023-05-14T17:04:26.735Z,4.57
2023-05-14T17:09:22.894Z,4.10
2023-05-14T17:11:50.095Z,5.18
2023-05-14T17:14:17.439Z,4.35
2023-05-14T17:16:44.692Z,4.63
2023-05-14T17:19:12.154Z,5.72
2023-05-14T17:21:39.842Z,5.30
2023-05-14T17:24:07.572Z,5.32
2023-05-14T17:26:34.865Z,5.18
2023-05-14T17:29:02.346Z,5.00
2023-05-14T17:31:29.821Z,5.30
2023-05-14T17:33:57.230Z,5.60
2023-05-14T17:36:25.053Z,6.28
2023-05-14T17:38:52.609Z,5.45
2023-05-14T17:41:20.086Z,5.03
2023-05-14T17:43:47.448Z,5.35
2023-05-14T17:46:14.634Z,91.68
2023-05-14T17:48:41.990Z,21.52
2023-05-14T17:51:09.407Z,14.55
2023-05-14T17:53:36.685Z,8.98
2023-05-14T17:56:04.752Z,6.05
2023-05-14T17:58:32.147Z,5.85
2023-05-14T18:00:59.655Z,5.93
2023-05-14T18:03:27.046Z,5.10
2023-05-14T18:05:54.607Z,5.85
2023-05-14T18:08:22.361Z,5.68
2023-05-14T18:10:49.519Z,4.68
2023-05-14T18:13:16.717Z,4.93
2023-05-14T18:15:44.188Z,4.85
2023-05-14T18:18:11.501Z,4.47
2023-05-14T18:20:38.912Z,5.13
2023-05-14T18:23:06.178Z,4.05
2023-05-14T18:25:34.031Z,4.18
2023-05-14T18:28:01.386Z,4.32
2023-05-14T18:30:28.902Z,4.32
2023-05-14T18:32:56.363Z,5.38
2023-05-14T18:35:24.309Z,6.50
2023-05-14T18:37:51.845Z,9.75
2023-05-14T18:40:19.592Z,11.68
2023-05-14T18:42:47.105Z,12.40
2023-05-14T18:45:14.879Z,12.38
2023-05-14T18:47:42.336Z,10.77
2023-05-14T18:50:10.192Z,8.70
2023-05-14T18:52:38.288Z,9.20
2023-05-14T18:55:06.200Z,9.88
2023-05-14T18:57:34.104Z,10.20
2023-05-14T19:00:02.177Z,9.77
2023-05-14T19:02:29.897Z,10.45
2023-05-14T19:04:57.535Z,12.85
2023-05-14T19:07:25.096Z,10.93
2023-05-14T19:09:53.141Z,11.57
2023-05-14T19:12:20.711Z,11.73
2023-05-14T19:14:47.985Z,11.85
2023-05-14T19:17:15.833Z,10.70
2023-05-14T19:19:44.928Z,10.70
2023-05-14T19:22:12.340Z,10.07
2023-05-14T19:24:40.208Z,10.52
2023-05-14T19:27:08.285Z,11.25
2023-05-14T19:29:39.403Z,9.60
2023-05-14T19:32:07.795Z,9.40
2023-05-14T19:34:35.479Z,9.82
2023-05-14T19:37:03.276Z,10.05
2023-05-14T19:39:30.581Z,9.00
2023-05-14T19:41:58.105Z,12.68
2023-05-14T19:44:26.102Z,10.48
2023-05-14T19:46:53.696Z,10.68
2023-05-14T19:49:21.191Z,11.38
2023-05-14T19:51:48.582Z,12.50
2023-05-14T19:54:15.934Z,11.90
2023-05-14T19:56:43.251Z,12.48
2023-05-14T19:59:10.840Z,13.50
2023-05-14T20:01:38.237Z,13.80
2023-05-14T20:04:05.718Z,13.43
2023-05-14T20:06:34.414Z,14.05
2023-05-14T20:09:01.994Z,14.52
2023-05-14T20:11:29.362Z,14.18
2023-05-14T20:13:56.665Z,13.85
2023-05-14T20:16:24.174Z,14.80
2023-05-14T20:18:54.064Z,13.38
2023-05-14T20:21:21.419Z,13.07
2023-05-14T20:23:48.698Z,12.65
2023-05-14T20:26:16.351Z,11.60
2023-05-14T20:28:43.672Z,11.82
2023-05-14T20:31:11.038Z,11.30
2023-05-14T20:33:38.388Z,10.73
2023-05-14T20:36:05.866Z,11.77
2023-05-14T20:38:35.042Z,10.20
2023-05-14T20:41:02.501Z,10.40
2023-05-14T20:43:29.929Z,10.30
2023-05-14T20:45:59.054Z,9.80
2023-05-14T20:48:26.421Z,11.55
2023-05-14T20:50:53.847Z,11.85
2023-05-14T20:53:21.427Z,11.20
2023-05-14T20:55:48.854Z,11.15
2023-05-14T20:58:16.031Z,11.25
2023-05-14T21:00:43.545Z,10.88
2023-05-14T21:03:10.940Z,13.18
2023-05-14T21:05:38.410Z,14.23
2023-05-14T21:08:05.944Z,12.30
2023-05-14T21:10:33.214Z,13.63
2023-05-14T21:13:00.445Z,13.18
2023-05-14T21:15:28.198Z,14.07
2023-05-14T21:17:55.685Z,12.38
2023-05-14T21:20:23.078Z,14.68
2023-05-14T21:22:50.440Z,13.80
2023-05-14T21:25:17.975Z,15.32
2023-05-14T21:27:45.396Z,14.82
2023-05-14T21:30:13.541Z,15.60
2023-05-14T21:32:40.858Z,14.43
2023-05-14T21:35:08.968Z,14.88
2023-05-14T21:37:36.471Z,15.27
2023-05-14T21:40:03.943Z,15.15
2023-05-14T21:42:31.242Z,13.95
2023-05-14T21:44:58.563Z,16.17
2023-05-14T21:47:26.921Z,15.50
2023-05-14T21:49:54.279Z,16.80
2023-05-14T21:52:21.545Z,16.52
2023-05-14T21:54:48.816Z,16.40
2023-05-14T21:57:16.278Z,16.77
2023-05-14T21:59:43.585Z,16.73
2023-05-14T22:02:10.882Z,17.52
2023-05-14T22:04:38.163Z,18.20
2023-05-14T22:07:05.468Z,16.60
2023-05-14T22:09:32.698Z,18.00
2023-05-14T22:12:00.185Z,17.05
2023-05-14T22:14:27.515Z,17.42
2023-05-14T22:16:55.083Z,17.05
2023-05-14T22:19:22.529Z,17.73
2023-05-14T22:21:49.813Z,17.10
2023-05-14T22:24:17.043Z,16.13
2023-05-14T22:26:44.713Z,16.45
2023-05-14T22:29:11.908Z,17.67
2023-05-14T22:31:39.223Z,19.08
2023-05-14T22:34:06.544Z,16.73
2023-05-14T22:36:33.824Z,18.35
2023-05-14T22:39:01.258Z,19.45
2023-05-14T22:41:28.459Z,17.85
2023-05-14T22:43:55.793Z,16.90
2023-05-14T22:46:23.187Z,18.88
2023-05-14T22:48:50.546Z,17.33
2023-05-14T22:51:17.982Z,18.88
2023-05-14T22:53:45.641Z,20.45
2023-05-14T22:56:13.144Z,19.08
2023-05-14T22:58:40.393Z,20.27
2023-05-14T23:01:07.716Z,19.25
2023-05-14T23:03:34.956Z,18.27
2023-05-14T23:06:02.259Z,20.25
2023-05-14T23:08:29.548Z,19.30
2023-05-14T23:10:56.804Z,18.85
2023-05-14T23:13:24.131Z,18.25
2023-05-14T23:15:51.481Z,19.92
2023-05-14T23:18:19.009Z,19.42
2023-05-14T23:20:46.373Z,19.02
2023-05-14T23:23:13.619Z,18.02
2023-05-14T23:25:41.159Z,18.77
2023-05-14T23:28:08.621Z,21.05
2023-05-14T23:30:35.942Z,19.38
2023-05-14T23:33:03.312Z,21.10
2023-05-14T23:35:30.565Z,19.75
2023-05-14T23:37:57.726Z,19.15
2023-05-14T23:40:25.164Z,19.95
2023-05-14T23:42:52.612Z,21.52
2023-05-14T23:45:19.924Z,18.27
2023-05-14T23:47:47.384Z,20.70
2023-05-14T23:50:14.697Z,19.85
2023-05-14T23:52:42.022Z,18.60
2023-05-14T23:55:09.875Z,20.33
2023-05-14T23:57:37.511Z,21.48
